Time;durP1;ratioP1;P1;durP2;ratioP2;P2;SDS_P1;SDS_P2;PMS_P1;PMS_P2;Temp;Humidity;BMP_temperature;BMP_pressure;BME280_temperature;BME280_humidity;BME280_pressure;Samples;Min_cycle;Max_cycle;Signal;HPM_P1;HPM_P2
2023/01/22 00:01:42;;;;;;;9.70;5.07;;;1.10;79.50;;;;;;5099914;28;20032;-67
2023/01/22 00:04:08;;;;;;;6.82;4.45;;;1.00;79.50;;;;;;5073148;28;20020;-66
2023/01/22 00:06:34;;;;;;;9.13;6.30;;;1.00;79.60;;;;;;5103377;28;20114;-67
2023/01/22 00:09:02;;;;;;;10.90;5.22;;;1.00;79.60;;;;;;5106243;28;20103;-68
2023/01/22 00:11:28;;;;;;;6.65;4.75;;;1.00;79.70;;;;;;5081026;28;20032;-67
2023/01/22 00:13:54;;;;;;;10.35;5.80;;;1.00;80.30;;;;;;5104857;28;20024;-68
2023/01/22 00:16:20;;;;;;;6.47;4.30;;;1.00;79.80;;;;;;5076434;28;20343;-67
2023/01/22 00:18:46;;;;;;;8.20;5.65;;;1.00;79.80;;;;;;5100180;28;20027;-61
2023/01/22 00:21:12;;;;;;;13.45;6.28;;;1.00;79.80;;;;;;5105743;28;20450;-61
2023/01/22 00:23:38;;;;;;;7.53;5.20;;;0.90;79.90;;;;;;5086521;28;20153;-61
2023/01/22 00:26:12;;;;;;;5.88;4.82;;;0.90;80.00;;;;;;5072939;28;20498;-60
2023/01/22 00:28:40;;;;;;;9.55;5.22;;;1.00;80.00;;;;;;5085592;28;20024;-67
2023/01/22 00:31:06;;;;;;;8.10;5.10;;;1.00;80.10;;;;;;5097057;28;20020;-61
2023/01/22 00:33:33;;;;;;;8.07;5.47;;;1.00;80.20;;;;;;5102726;28;20105;-61
2023/01/22 00:36:16;;;;;;;9.50;5.82;;;1.00;80.30;;;;;;5093632;28;20072;-61
2023/01/22 00:38:42;;;;;;;6.25;4.43;;;1.10;80.30;;;;;;5087096;28;20475;-61
2023/01/22 00:41:08;;;;;;;5.63;4.28;;;1.10;80.40;;;;;;5103040;28;20026;-68
2023/01/22 00:43:37;;;;;;;10.10;5.03;;;1.10;80.40;;;;;;5107434;28;20103;-67
2023/01/22 00:46:04;;;;;;;8.85;4.97;;;1.20;80.40;;;;;;5096552;28;20031;-67
2023/01/22 00:48:30;;;;;;;6.57;4.38;;;1.20;80.40;;;;;;5105656;28;20035;-67
2023/01/22 00:50:56;;;;;;;6.03;4.35;;;1.30;80.40;;;;;;5106360;28;20085;-67
2023/01/22 00:53:21;;;;;;;5.07;4.00;;;1.30;80.40;;;;;;5103889;28;20028;-67
2023/01/22 00:56:01;;;;;;;8.15;4.20;;;1.30;80.50;;;;;;5098964;28;20044;-67
2023/01/22 00:58:27;;;;;;;6.13;4.03;;;1.30;80.40;;;;;;5095670;28;20398;-67
2023/01/22 01:00:53;;;;;;;8.10;3.63;;;1.30;80.50;;;;;;5102746;28;20023;-67
2023/01/22 01:03:26;;;;;;;11.10;5.18;;;1.40;80.50;;;;;;5090323;28;20020;-68
2023/01/22 01:05:57;;;;;;;;;;;1.40;80.40;;;;;;5104428;28;20161;-67
2023/01/22 01:08:25;;;;;;;4.18;2.80;;;1.40;80.50;;;;;;5097148;28;19956;-67
2023/01/22 01:10:55;;;;;;;5.78;3.00;;;1.40;80.60;;;;;;5090908;28;20501;-61
2023/01/22 01:13:22;;;;;;;5.22;4.15;;;1.40;80.60;;;;;;5088695;28;20032;-61
2023/01/22 01:15:48;;;;;;;4.25;3.15;;;1.40;80.60;;;;;;5084884;28;20035;-61
2023/01/22 01:18:14;;;;;;;4.68;3.67;;;1.50;80.70;;;;;;5090678;28;20098;-61
2023/01/22 01:20:40;;;;;;;5.85;3.75;;;1.50;80.70;;;;;;5101290;28;20027;-61
2023/01/22 01:23:06;;;;;;;6.00;3.67;;;1.50;80.60;;;;;;5072463;28;20035;-61
2023/01/22 01:25:32;;;;;;;7.57;3.58;;;1.60;80.70;;;;;;5085551;28;20511;-61
2023/01/22 01:27:58;;;;;;;3.28;2.47;;;1.60;80.70;;;;;;5079886;28;20028;-61
2023/01/22 01:30:24;;;;;;;4.78;2.95;;;1.60;80.70;;;;;;5077715;28;20048;-61
2023/01/22 01:32:50;;;;;;;7.88;4.13;;;1.60;80.80;;;;;;5089560;28;20028;-68
2023/01/22 01:35:15;;;;;;;3.53;2.95;;;1.60;80.80;;;;;;5095523;28;20105;-67
2023/01/22 01:37:41;;;;;;;5.80;3.65;;;1.60;80.80;;;;;;5072252;28;20036;-66
2023/01/22 01:40:07;;;;;;;5.15;3.30;;;1.60;80.80;;;;;;5091740;28;20429;-67
2023/01/22 01:42:37;;;;;;;7.35;3.75;;;1.60;81.40;;;;;;5074656;28;20081;-67
2023/01/22 01:45:31;;;;;;;5.25;3.60;;;1.70;80.80;;;;;;5092441;28;20073;-68
2023/01/22 01:48:30;;;;;;;5.15;2.97;;;1.70;80.70;;;;;;5082653;28;20043;-68
2023/01/22 01:51:07;;;;;;;4.05;2.85;;;1.70;80.80;;;;;;5098419;28;20035;-68
2023/01/22 01:53:33;;;;;;;5.18;2.97;;;1.70;80.70;;;;;;5094276;28;20020;-67
2023/01/22 01:56:02;;;;;;;6.60;2.78;;;1.70;80.80;;;;;;5105493;28;20047;-65
2023/01/22 01:58:32;;;;;;;6.82;3.13;;;1.70;80.80;;;;;;5095447;28;20433;-66
2023/01/22 02:01:04;;;;;;;5.75;2.97;;;1.70;80.80;;;;;;5104546;28;20371;-66
2023/01/22 02:03:30;;;;;;;4.07;3.03;;;1.70;80.80;;;;;;5099992;28;20048;-66
2023/01/22 02:05:56;;;;;;;6.47;3.33;;;1.70;80.80;;;;;;5096404;28;20062;-66
2023/01/22 02:08:22;;;;;;;8.50;4.28;;;1.70;80.70;;;;;;5099352;28;20035;-68
2023/01/22 02:10:48;;;;;;;5.72;3.70;;;1.70;80.80;;;;;;5094265;28;20111;-66
2023/01/22 02:13:19;;;;;;;5.47;2.90;;;1.70;80.80;;;;;;5073859;28;20136;-67
2023/01/22 02:15:45;;;;;;;5.22;3.28;;;1.70;80.80;;;;;;5091327;28;20030;-66
2023/01/22 02:18:11;;;;;;;9.25;3.53;;;1.70;80.80;;;;;;5088347;28;20449;-67
2023/01/22 02:20:38;;;;;;;5.38;3.40;;;1.70;80.90;;;;;;5059621;28;20020;-67
2023/01/22 02:23:05;;;;;;;7.05;3.72;;;1.70;81.00;;;;;;5095793;28;20052;-67
2023/01/22 02:25:32;;;;;;;5.63;3.70;;;1.70;80.90;;;;;;5093706;28;20093;-67
2023/01/22 02:27:59;;;;;;;13.02;2.88;;;1.70;80.90;;;;;;5093334;28;20641;-67
2023/01/22 02:30:25;;;;;;;5.97;3.35;;;1.70;80.90;;;;;;5091102;28;20529;-66
2023/01/22 02:32:50;;;;;;;6.15;3.50;;;1.70;81.00;;;;;;5076139;28;20102;-67
2023/01/22 02:35:16;;;;;;;6.07;3.55;;;1.70;81.00;;;;;;5092760;28;20111;-60
2023/01/22 02:37:42;;;;;;;6.97;3.78;;;1.70;80.90;;;;;;5075145;28;20114;-61
2023/01/22 02:40:08;;;;;;;4.47;3.03;;;1.70;80.80;;;;;;5096592;28;20039;-61
2023/01/22 02:42:34;;;;;;;3.95;3.42;;;1.70;80.90;;;;;;5093628;28;20498;-66
2023/01/22 02:44:59;;;;;;;4.93;3.63;;;1.60;80.90;;;;;;5093173;28;20036;-66
2023/01/22 02:47:25;;;;;;;5.85;3.92;;;1.60;80.90;;;;;;5096028;28;20088;-67
2023/01/22 02:49:51;;;;;;;5.85;3.90;;;1.60;80.90;;;;;;5099191;28;20031;-67
2023/01/22 02:52:16;;;;;;;5.03;3.55;;;1.60;81.00;;;;;;5090910;28;20040;-67
2023/01/22 02:54:42;;;;;;;3.45;2.83;;;1.60;81.00;;;;;;5095942;28;20555;-67
2023/01/22 02:57:07;;;;;;;4.88;3.22;;;1.60;81.00;;;;;;5074037;28;20034;-67
2023/01/22 02:59:34;;;;;;;5.47;3.38;;;1.50;81.00;;;;;;5094710;28;20035;-67
2023/01/22 03:01:59;;;;;;;3.85;2.95;;;1.50;81.00;;;;;;5100729;28;20088;-67
2023/01/22 03:04:26;;;;;;;6.57;3.20;;;1.50;81.60;;;;;;5090902;28;20028;-67
2023/01/22 03:06:51;;;;;;;4.47;3.15;;;1.50;81.00;;;;;;5101993;28;20047;-67
2023/01/22 03:09:17;;;;;;;5.10;3.17;;;1.50;81.10;;;;;;5087485;28;20032;-61
2023/01/22 03:11:45;;;;;;;7.57;4.03;;;1.60;81.00;;;;;;5098608;28;20039;-61
2023/01/22 03:22:25;;;;;;;5.45;3.53;;;1.50;81.70;;;;;;5095469;28;20047;-67
2023/01/22 03:24:51;;;;;;;4.25;3.25;;;1.50;81.20;;;;;;5078445;28;20036;-67
2023/01/22 03:27:20;;;;;;;6.05;3.97;;;1.60;81.20;;;;;;5055991;28;20020;-67
2023/01/22 03:29:45;;;;;;;4.57;3.78;;;1.60;81.10;;;;;;5081228;28;20048;-68
2023/01/22 03:32:11;;;;;;;6.40;3.55;;;1.60;81.20;;;;;;5092288;28;20047;-67
2023/01/22 03:34:37;;;;;;;4.78;3.72;;;1.60;81.10;;;;;;5089499;28;20123;-67
2023/01/22 03:37:04;;;;;;;7.70;3.47;;;1.60;81.10;;;;;;5104768;28;20118;-67
2023/01/22 03:39:31;;;;;;;5.13;3.20;;;1.60;81.20;;;;;;5090756;28;20023;-68
2023/01/22 03:41:56;;;;;;;7.63;4.35;;;1.60;81.10;;;;;;5085304;28;20479;-67
2023/01/22 03:44:22;;;;;;;6.88;3.35;;;1.70;81.00;;;;;;5091785;28;20031;-61
2023/01/22 03:46:48;;;;;;;4.95;3.28;;;1.60;81.00;;;;;;5076645;28;20032;-61
2023/01/22 03:49:14;;;;;;;6.65;4.25;;;1.70;81.00;;;;;;5091745;28;20126;-61
2023/01/22 03:51:41;;;;;;;4.63;3.53;;;1.70;81.00;;;;;;5101981;28;20093;-62
2023/01/22 03:54:09;;;;;;;8.90;4.28;;;1.70;81.00;;;;;;5090574;28;20028;-59
2023/01/22 03:56:35;;;;;;;7.43;4.57;;;1.80;81.00;;;;;;5091051;28;20451;-61
2023/01/22 03:59:00;;;;;;;6.28;4.05;;;1.80;81.00;;;;;;5089928;28;20062;-61
2023/01/22 04:01:27;;;;;;;6.22;3.95;;;1.80;80.90;;;;;;5094663;28;20030;-61
2023/01/22 04:03:53;;;;;;;5.50;3.78;;;1.80;81.00;;;;;;5089138;28;20580;-60
2023/01/22 04:06:21;;;;;;;4.55;3.10;;;1.90;81.00;;;;;;5093092;28;20103;-67
2023/01/22 04:08:50;;;;;;;4.38;2.80;;;1.90;80.90;;;;;;5101829;28;20020;-67
2023/01/22 04:11:17;;;;;;;4.60;3.25;;;2.00;80.80;;;;;;5094352;28;20039;-67
2023/01/22 04:13:44;;;;;;;5.55;3.83;;;2.00;80.70;;;;;;5089730;28;20082;-67
2023/01/22 04:16:12;;;;;;;5.63;3.75;;;2.00;80.70;;;;;;5094184;28;20030;-67
2023/01/22 04:18:38;;;;;;;6.57;4.43;;;2.00;80.70;;;;;;5077072;28;20135;-68
2023/01/22 04:21:04;;;;;;;6.90;4.05;;;2.00;80.70;;;;;;5096354;28;20497;-67
2023/01/22 04:23:30;;;;;;;6.28;4.45;;;2.00;80.80;;;;;;5099567;28;20056;-67
2023/01/22 04:25:56;;;;;;;6.03;3.85;;;2.00;80.80;;;;;;5072975;28;20079;-61
2023/01/22 04:28:22;;;;;;;6.35;4.13;;;2.00;80.80;;;;;;5059564;28;20037;-64
2023/01/22 04:30:50;;;;;;;8.23;4.65;;;2.00;80.80;;;;;;5069380;28;20024;-59
2023/01/22 04:33:16;;;;;;;4.88;3.75;;;2.00;80.80;;;;;;5072886;28;20078;-60
2023/01/22 04:35:41;;;;;;;4.45;3.35;;;2.00;80.80;;;;;;5070494;28;20033;-61
2023/01/22 04:38:11;;;;;;;8.40;4.85;;;2.10;80.90;;;;;;5072845;28;20079;-60
2023/01/22 04:40:37;;;;;;;8.32;3.95;;;2.10;80.90;;;;;;5068344;28;20095;-61
2023/01/22 04:43:04;;;;;;;5.88;3.72;;;2.10;80.80;;;;;;5071645;28;20111;-60
2023/01/22 04:45:29;;;;;;;3.55;2.60;;;2.10;81.40;;;;;;5072444;28;20016;-61
2023/01/22 04:47:56;;;;;;;5.80;3.38;;;2.10;80.80;;;;;;5069239;28;20033;-62
2023/01/22 04:50:24;;;;;;;6.78;3.50;;;2.10;80.80;;;;;;5063420;28;20379;-62
2023/01/22 04:52:51;;;;;;;7.07;3.92;;;2.10;80.80;;;;;;5069361;28;20550;-67
2023/01/22 04:55:17;;;;;;;8.98;4.10;;;2.10;80.90;;;;;;5072155;28;20029;-66
2023/01/22 04:57:43;;;;;;;6.05;3.83;;;2.10;80.90;;;;;;5067976;28;20487;-67
2023/01/22 05:00:10;;;;;;;4.85;3.20;;;2.10;80.90;;;;;;5074614;28;20736;-67
2023/01/22 05:02:36;;;;;;;5.45;2.90;;;2.20;80.90;;;;;;5071269;28;20028;-67
2023/01/22 05:05:04;;;;;;;6.28;4.05;;;2.20;80.90;;;;;;5078796;28;20024;-67
2023/01/22 05:07:30;;;;;;;5.13;3.17;;;2.20;80.90;;;;;;5071200;28;20044;-67
2023/01/22 05:10:17;;;;;;;4.85;3.90;;;2.20;80.80;;;;;;5070606;28;20025;-67
2023/01/22 05:12:44;;;;;;;8.18;4.28;;;2.20;80.80;;;;;;5075258;28;20663;-66
2023/01/22 05:15:10;;;;;;;5.70;3.80;;;2.20;81.00;;;;;;5073779;28;20016;-65
2023/01/22 05:17:36;;;;;;;8.98;4.50;;;2.20;80.90;;;;;;5081126;28;20040;-66
2023/01/22 05:20:02;;;;;;;7.72;3.90;;;2.20;80.90;;;;;;5075426;28;20449;-66
2023/01/22 05:22:29;;;;;;;4.75;3.80;;;2.20;80.80;;;;;;5080104;28;20044;-67
2023/01/22 05:24:54;;;;;;;5.57;3.05;;;2.30;80.90;;;;;;5067362;28;20051;-66
2023/01/22 05:27:20;;;;;;;5.25;3.63;;;2.30;80.80;;;;;;5063583;28;20052;-66
2023/01/22 05:29:46;;;;;;;4.72;3.75;;;2.20;80.70;;;;;;5098242;28;20042;-66
2023/01/22 05:32:12;;;;;;;6.65;4.03;;;2.20;80.70;;;;;;5099661;28;20028;-61
2023/01/22 05:34:38;;;;;;;7.88;4.50;;;2.20;80.70;;;;;;5096578;28;20055;-61
2023/01/22 05:37:04;;;;;;;5.88;4.15;;;2.20;80.90;;;;;;5095584;28;20032;-61
2023/01/22 05:39:29;;;;;;;8.98;4.45;;;2.20;81.00;;;;;;5100740;28;20028;-60
2023/01/22 05:41:55;;;;;;;9.00;4.50;;;2.20;81.00;;;;;;5094916;28;21815;-61
2023/01/22 05:44:21;;;;;;;7.20;3.42;;;2.20;80.90;;;;;;5080904;28;20494;-61
2023/01/22 05:46:46;;;;;;;6.32;3.78;;;2.20;80.90;;;;;;5097339;28;20040;-62
2023/01/22 05:49:12;;;;;;;5.30;3.30;;;2.20;80.90;;;;;;5101370;28;20028;-61
2023/01/22 05:51:38;;;;;;;4.47;3.08;;;2.10;80.90;;;;;;5094457;28;20028;-61
2023/01/22 05:54:04;;;;;;;6.40;3.88;;;2.10;81.00;;;;;;5095675;28;20053;-62
2023/01/22 05:56:30;;;;;;;5.45;4.00;;;2.10;81.10;;;;;;5066902;28;20028;-61
2023/01/22 05:58:56;;;;;;;6.18;3.40;;;2.10;81.00;;;;;;5097200;28;20110;-67
2023/01/22 06:01:22;;;;;;;5.68;3.60;;;2.10;81.00;;;;;;5088902;28;20095;-60
2023/01/22 06:03:47;;;;;;;5.30;3.75;;;2.10;81.00;;;;;;5091672;28;20024;-66
2023/01/22 06:06:14;;;;;;;5.78;3.75;;;2.10;81.00;;;;;;5080446;28;20035;-67
2023/01/22 06:08:40;;;;;;;3.90;2.80;;;2.10;81.00;;;;;;5091411;28;20024;-67
2023/01/22 06:11:09;;;;;;;6.53;3.92;;;2.10;80.80;;;;;;5103349;28;20057;-67
2023/01/22 06:13:36;;;;;;;4.82;3.50;;;2.10;80.80;;;;;;5097316;28;20020;-67
2023/01/22 06:16:02;;;;;;;4.82;3.17;;;2.10;80.80;;;;;;5094308;28;20114;-67
2023/01/22 06:18:28;;;;;;;3.80;2.95;;;2.10;80.80;;;;;;5104379;28;20170;-67
2023/01/22 06:21:02;;;;;;;5.03;3.15;;;2.10;80.90;;;;;;5105305;28;20027;-67
2023/01/22 06:23:28;;;;;;;3.38;2.97;;;2.10;80.80;;;;;;5110227;28;20024;-68
2023/01/22 06:25:56;;;;;;;4.88;3.33;;;2.10;80.80;;;;;;5091591;28;20390;-67
2023/01/22 06:28:23;;;;;;;3.67;2.80;;;2.20;80.80;;;;;;5090152;28;20085;-68
2023/01/22 06:30:49;;;;;;;3.75;3.35;;;2.10;80.70;;;;;;5111564;28;20419;-68
2023/01/22 06:33:15;;;;;;;5.85;3.42;;;2.10;80.60;;;;;;5098106;28;20387;-67
2023/01/22 06:35:41;;;;;;;3.88;3.38;;;2.10;80.60;;;;;;5110095;28;20043;-70
2023/01/22 06:38:07;;;;;;;4.72;3.88;;;2.10;80.60;;;;;;5090931;28;20028;-68
2023/01/22 06:40:33;;;;;;;3.72;3.22;;;2.00;80.70;;;;;;5108618;28;20024;-67
2023/01/22 06:43:02;;;;;;;7.22;3.15;;;2.00;80.80;;;;;;5093145;28;20386;-68
2023/01/22 06:45:28;;;;;;;3.25;2.95;;;2.00;80.80;;;;;;5094281;28;20034;-68
2023/01/22 06:47:54;;;;;;;2.78;2.53;;;2.00;80.80;;;;;;5077693;28;20036;-67
2023/01/22 06:50:19;;;;;;;3.45;2.63;;;2.00;80.90;;;;;;5088236;28;20031;-69
2023/01/22 06:52:45;;;;;;;6.40;3.20;;;2.00;80.90;;;;;;5070162;28;20036;-61
2023/01/22 06:55:11;;;;;;;3.45;2.70;;;2.00;80.90;;;;;;5099325;28;20489;-62
2023/01/22 06:57:37;;;;;;;8.27;2.63;;;2.10;80.90;;;;;;5092183;28;20380;-61
2023/01/22 07:00:04;;;;;;;9.07;2.65;;;2.10;80.80;;;;;;5074071;28;20051;-61
2023/01/22 07:02:30;;;;;;;3.65;2.35;;;2.10;80.80;;;;;;5084180;28;20427;-62
2023/01/22 07:04:56;;;;;;;5.25;2.63;;;2.10;80.80;;;;;;5092034;28;20102;-64
2023/01/22 07:07:22;;;;;;;3.78;2.63;;;2.10;80.70;;;;;;5072522;28;20481;-61
2023/01/22 07:09:47;;;;;;;10.80;3.53;;;2.10;80.80;;;;;;5106665;28;20024;-68
2023/01/22 07:12:13;;;;;;;4.35;2.65;;;2.20;80.80;;;;;;5081701;28;20034;-66
2023/01/22 07:14:39;;;;;;;5.28;2.72;;;2.20;80.70;;;;;;5089787;28;20067;-66
2023/01/22 07:17:05;;;;;;;4.25;2.72;;;2.20;80.70;;;;;;5095989;28;20028;-67
2023/01/22 07:19:31;;;;;;;4.97;2.85;;;2.20;80.60;;;;;;5095389;28;20043;-62
2023/01/22 07:21:56;;;;;;;2.65;2.22;;;2.20;80.70;;;;;;5098888;28;20047;-67
2023/01/22 07:24:22;;;;;;;3.33;2.08;;;2.20;80.60;;;;;;5091283;28;20107;-68
2023/01/22 07:26:48;;;;;;;4.15;2.83;;;2.20;80.50;;;;;;5088535;28;20043;-61
2023/01/22 07:29:14;;;;;;;3.70;2.50;;;2.10;80.60;;;;;;5089299;28;20031;-61
2023/01/22 07:31:39;;;;;;;3.78;2.80;;;2.10;80.70;;;;;;5088529;28;20482;-61
2023/01/22 07:34:06;;;;;;;3.95;2.40;;;2.10;80.70;;;;;;5074992;28;20032;-61
2023/01/22 07:36:32;;;;;;;3.47;2.40;;;2.00;80.80;;;;;;5089049;28;20056;-61
2023/01/22 07:38:57;;;;;;;5.18;2.20;;;2.10;80.80;;;;;;5095629;28;20062;-66
2023/01/22 07:41:23;;;;;;;4.97;2.42;;;2.00;80.80;;;;;;5092484;28;20036;-67
2023/01/22 07:43:49;;;;;;;4.55;2.65;;;2.00;81.50;;;;;;5089956;28;20667;-67
2023/01/22 07:46:15;;;;;;;2.17;2.00;;;2.00;80.90;;;;;;5097253;28;20032;-68
2023/01/22 07:48:41;;;;;;;3.13;2.28;;;2.00;81.00;;;;;;5077351;28;20054;-67
2023/01/22 07:51:07;;;;;;;4.15;2.50;;;2.00;80.90;;;;;;5080303;28;20028;-67
2023/01/22 07:53:33;;;;;;;9.68;2.92;;;2.00;80.90;;;;;;5094523;28;20500;-63
2023/01/22 07:56:01;;;;;;;3.15;2.40;;;2.00;81.00;;;;;;5093283;28;20394;-67
2023/01/22 07:58:27;;;;;;;3.53;2.60;;;2.00;81.00;;;;;;5085562;28;20497;-67
2023/01/22 08:00:52;;;;;;;3.58;2.20;;;2.00;81.50;;;;;;5091240;28;20016;-67
2023/01/22 08:03:18;;;;;;;4.72;2.35;;;2.10;81.00;;;;;;5090158;28;20532;-70
2023/01/22 08:05:44;;;;;;;3.05;2.33;;;2.10;81.00;;;;;;5086873;28;20032;-70
2023/01/22 08:08:16;;;;;;;2.97;2.50;;;2.20;80.90;;;;;;5091045;28;20032;-70
2023/01/22 08:10:42;;;;;;;5.45;3.17;;;2.30;80.70;;;;;;5076801;28;20064;-70
2023/01/22 08:13:09;;;;;;;4.03;2.42;;;2.30;80.60;;;;;;5093621;28;20093;-68
2023/01/22 08:15:34;;;;;;;3.65;2.90;;;2.30;80.50;;;;;;5093712;28;20127;-69
2023/01/22 08:18:00;;;;;;;2.92;2.53;;;2.40;80.50;;;;;;5094599;28;20107;-69
2023/01/22 08:20:26;;;;;;;2.47;2.15;;;2.40;80.50;;;;;;5077562;28;20051;-60
2023/01/22 08:22:57;;;;;;;5.00;2.50;;;2.40;80.50;;;;;;5084022;28;20098;-70
2023/01/22 08:25:23;;;;;;;2.25;2.05;;;2.40;80.50;;;;;;5078037;28;21768;-70
2023/01/22 08:27:48;;;;;;;3.45;2.40;;;2.50;80.50;;;;;;5073359;28;20494;-69
2023/01/22 08:30:14;;;;;;;1.95;1.65;;;2.50;80.40;;;;;;5094064;28;20097;-67
2023/01/22 08:32:40;;;;;;;3.92;2.42;;;2.50;80.30;;;;;;5087871;28;20414;-59
2023/01/22 08:35:07;;;;;;;3.80;2.63;;;2.50;80.40;;;;;;5075683;28;20032;-59
2023/01/22 08:37:32;;;;;;;3.28;2.03;;;2.50;80.40;;;;;;5091623;28;20028;-60
2023/01/22 08:39:58;;;;;;;2.90;2.30;;;2.50;80.50;;;;;;5099078;28;20434;-60
2023/01/22 08:42:24;;;;;;;4.40;2.15;;;2.60;80.40;;;;;;5095960;28;20470;-59
2023/01/22 08:44:49;;;;;;;3.38;2.03;;;2.60;80.40;;;;;;5096937;28;20024;-59
2023/01/22 08:47:15;;;;;;;4.25;2.63;;;2.60;80.30;;;;;;5074781;28;20051;-60
2023/01/22 08:49:41;;;;;;;3.08;1.98;;;2.60;80.30;;;;;;5094510;28;20028;-60
2023/01/22 08:52:07;;;;;;;3.17;2.20;;;2.70;80.30;;;;;;5101113;28;20048;-59
2023/01/22 08:54:32;;;;;;;3.42;2.70;;;2.70;80.30;;;;;;5099789;28;20075;-66
2023/01/22 08:56:58;;;;;;;3.42;1.95;;;2.70;80.20;;;;;;5085071;28;20028;-66
2023/01/22 08:59:24;;;;;;;1.80;1.52;;;2.70;80.10;;;;;;5098606;28;20028;-67
2023/01/22 09:01:49;;;;;;;2.58;1.90;;;2.70;80.00;;;;;;5100115;28;20479;-66
2023/01/22 09:04:15;;;;;;;3.78;2.20;;;2.70;80.10;;;;;;5098873;28;20036;-67
2023/01/22 09:06:41;;;;;;;3.20;2.28;;;2.70;80.10;;;;;;5074324;28;20046;-67
2023/01/22 09:09:06;;;;;;;2.20;1.65;;;2.80;80.10;;;;;;5100472;28;20028;-67
2023/01/22 09:11:32;;;;;;;2.88;2.40;;;2.80;80.10;;;;;;5112911;28;20111;-67
2023/01/22 09:13:58;;;;;;;3.80;2.38;;;2.80;80.10;;;;;;5102714;28;20022;-67
2023/01/22 09:16:25;;;;;;;3.40;2.20;;;2.80;80.00;;;;;;5099282;28;20038;-59
2023/01/22 09:18:52;;;;;;;2.85;2.33;;;2.80;80.00;;;;;;5104936;28;20120;-59
2023/01/22 09:21:17;;;;;;;2.50;2.17;;;2.80;79.90;;;;;;5069266;28;20028;-59
2023/01/22 09:23:43;;;;;;;2.30;1.63;;;2.80;79.90;;;;;;5101867;28;20069;-59
2023/01/22 09:26:09;;;;;;;2.33;1.98;;;2.80;80.00;;;;;;5094170;28;20109;-60
2023/01/22 09:28:35;;;;;;;4.88;1.58;;;2.90;80.00;;;;;;5098553;28;20118;-59
2023/01/22 09:31:00;;;;;;;3.10;1.83;;;2.90;80.00;;;;;;5107941;28;20032;-59
2023/01/22 09:33:26;;;;;;;3.38;2.28;;;2.90;79.90;;;;;;5094656;28;20450;-59
2023/01/22 09:35:52;;;;;;;2.97;1.98;;;2.90;79.90;;;;;;5094457;28;20040;-59
2023/01/22 09:38:18;;;;;;;1.75;1.50;;;2.90;79.80;;;;;;5077375;28;20036;-59
2023/01/22 09:40:56;;;;;;;2.88;1.90;;;3.00;79.80;;;;;;5093514;28;20139;-59
2023/01/22 09:43:35;;;;;;;6.15;1.98;;;3.00;79.80;;;;;;5094670;28;20031;-59
2023/01/22 09:46:05;;;;;;;2.65;2.10;;;3.00;79.80;;;;;;5095923;28;20035;-59
2023/01/22 09:48:40;;;;;;;1.73;1.55;;;3.00;79.70;;;;;;5076273;28;20020;-60
2023/01/22 09:51:06;;;;;;;4.47;2.63;;;3.00;79.70;;;;;;5092816;28;20058;-60
2023/01/22 09:53:33;;;;;;;3.00;2.35;;;3.00;79.60;;;;;;5087920;28;20107;-60
2023/01/22 09:56:00;;;;;;;3.08;2.78;;;3.00;79.70;;;;;;5090789;28;20040;-59
2023/01/22 09:58:26;;;;;;;2.90;2.05;;;3.00;79.70;;;;;;5094849;28;20449;-59
2023/01/22 10:01:10;;;;;;;3.53;1.70;;;3.10;79.80;;;;;;5078879;28;20047;-60
2023/01/22 10:03:40;;;;;;;2.17;1.73;;;3.10;79.50;;;;;;5102127;28;20020;-60
2023/01/22 10:06:06;;;;;;;2.85;1.67;;;3.10;79.50;;;;;;5092632;28;20446;-60
2023/01/22 10:08:37;;;;;;;2.83;2.40;;;3.20;79.60;;;;;;5089897;28;20051;-60
2023/01/22 10:11:06;;;;;;;1.75;1.45;;;3.10;79.50;;;;;;5087054;28;20047;-60
2023/01/22 10:13:35;;;;;;;2.92;1.75;;;3.10;79.50;;;;;;5084367;28;20113;-60
2023/01/22 10:16:01;;;;;;;3.33;1.90;;;3.20;79.60;;;;;;5105738;28;20482;-60
2023/01/22 10:18:46;;;;;;;4.35;2.17;;;3.20;79.50;;;;;;5097314;28;20028;-59
2023/01/22 10:21:18;;;;;;;2.75;1.52;;;3.30;79.30;;;;;;5086717;28;20032;-60
2023/01/22 10:23:44;;;;;;;3.17;1.65;;;3.40;79.30;;;;;;5091984;28;20044;-68
2023/01/22 10:26:18;;;;;;;3.05;1.90;;;3.30;79.20;;;;;;5090116;28;20108;-69
2023/01/22 10:28:48;;;;;;;2.92;2.00;;;3.30;79.20;;;;;;5090306;28;20031;-69
2023/01/22 10:31:30;;;;;;;3.50;2.10;;;3.40;79.30;;;;;;5088341;28;20115;-69
2023/01/22 10:34:01;;;;;;;1.38;1.23;;;3.40;79.20;;;;;;5101537;28;20088;-68
2023/01/22 10:36:29;;;;;;;3.05;2.20;;;3.40;79.10;;;;;;5087732;28;20032;-69
2023/01/22 10:39:11;;;;;;;3.10;2.03;;;3.40;79.10;;;;;;5096376;28;20043;-67
2023/01/22 10:41:38;;;;;;;3.58;2.38;;;3.40;79.00;;;;;;5091664;28;20042;-69
2023/01/22 10:44:22;;;;;;;2.55;1.95;;;3.40;79.20;;;;;;5108992;28;20028;-69
2023/01/22 10:46:49;;;;;;;8.02;1.85;;;3.40;79.20;;;;;;5090849;28;20027;-60
2023/01/22 10:49:26;;;;;;;2.72;1.77;;;3.40;79.20;;;;;;5099068;28;20077;-59
2023/01/22 10:51:57;;;;;;;2.55;1.80;;;3.50;79.20;;;;;;5109211;28;20397;-59
2023/01/22 10:54:38;;;;;;;4.38;2.45;;;3.50;79.20;;;;;;5091395;28;20059;-59
2023/01/22 10:57:20;;;;;;;2.85;2.15;;;3.50;79.20;;;;;;5097881;28;20035;-60
2023/01/22 10:59:52;;;;;;;5.63;2.72;;;3.50;79.20;;;;;;5091205;28;20036;-60
2023/01/22 11:02:22;;;;;;;3.03;2.03;;;3.50;79.20;;;;;;5088726;28;20368;-59
2023/01/22 11:04:48;;;;;;;2.65;1.50;;;3.50;79.10;;;;;;5089726;28;20020;-60
2023/01/22 11:07:21;;;;;;;2.22;2.03;;;3.50;79.10;;;;;;5068673;28;20047;-59
2023/01/22 11:10:07;;;;;;;3.58;2.25;;;3.50;79.10;;;;;;5088347;28;20107;-60
2023/01/22 11:12:42;;;;;;;3.13;2.08;;;3.50;79.10;;;;;;5098152;28;20020;-66
2023/01/22 11:15:20;;;;;;;2.72;2.17;;;3.50;79.10;;;;;;5098625;28;20015;-66
2023/01/22 11:17:56;;;;;;;2.85;2.28;;;3.60;79.10;;;;;;5091403;28;20077;-66
2023/01/22 11:20:29;;;;;;;3.38;1.95;;;3.60;79.10;;;;;;5088202;28;20047;-66
2023/01/22 11:23:15;;;;;;;3.83;2.05;;;3.60;79.00;;;;;;5082419;28;20035;-66
2023/01/22 11:25:59;;;;;;;9.55;2.92;;;3.60;78.80;;;;;;5085720;28;20037;-65
2023/01/22 11:28:45;;;;;;;3.97;2.10;;;3.60;78.90;;;;;;5090272;28;20076;-66
2023/01/22 11:31:32;;;;;;;2.00;1.50;;;3.60;78.80;;;;;;5081974;28;20028;-66
2023/01/22 11:34:18;;;;;;;2.10;1.60;;;3.60;79.00;;;;;;5082289;28;20020;-66
2023/01/22 11:36:52;;;;;;;8.07;2.42;;;3.70;79.00;;;;;;5086240;28;20039;-66
2023/01/22 11:39:39;;;;;;;4.03;2.47;;;3.60;78.90;;;;;;5080105;28;20043;-66
2023/01/22 11:42:34;;;;;;;3.03;2.55;;;3.60;78.90;;;;;;5091071;28;20062;-59
2023/01/22 11:45:25;;;;;;;5.15;2.15;;;3.60;79.10;;;;;;5066116;28;20028;-58
2023/01/22 11:48:02;;;;;;;3.90;2.47;;;3.60;79.10;;;;;;5085687;28;20475;-59
2023/01/22 11:50:34;;;;;;;6.15;3.25;;;3.60;79.10;;;;;;5094023;28;20382;-59
2023/01/22 11:53:24;;;;;;;2.83;1.88;;;3.60;79.10;;;;;;5089051;28;20035;-59
2023/01/22 11:56:01;;;;;;;5.25;2.70;;;3.60;79.10;;;;;;5088406;28;20031;-59
2023/01/22 11:58:52;;;;;;;2.42;2.17;;;3.70;79.20;;;;;;5089299;28;20051;-58
2023/01/22 12:01:29;;;;;;;3.47;2.45;;;3.70;79.00;;;;;;5086673;28;20035;-60
2023/01/22 12:04:26;;;;;;;3.60;2.67;;;3.80;79.00;;;;;;5090621;28;20032;-59
2023/01/22 12:07:22;;;;;;;3.45;2.67;;;3.90;78.80;;;;;;5085531;28;20024;-58
2023/01/22 12:09:59;;;;;;;3.08;2.25;;;3.90;78.70;;;;;;5088250;28;20049;-59
2023/01/22 12:13:05;;;;;;;4.20;2.53;;;3.90;78.70;;;;;;5091686;28;20043;-59
2023/01/22 12:16:05;;;;;;;2.67;2.40;;;3.90;78.60;;;;;;5089543;28;20062;-59
2023/01/22 12:18:53;;;;;;;3.20;2.33;;;4.00;78.60;;;;;;5084677;28;20024;-60
2023/01/22 12:21:26;;;;;;;8.70;3.20;;;4.10;78.70;;;;;;5101243;28;20051;-60
2023/01/22 12:24:23;;;;;;;3.00;1.92;;;4.20;78.50;;;;;;5096288;28;20386;-59
2023/01/22 12:27:00;;;;;;;3.17;2.30;;;4.20;78.20;;;;;;5046272;28;20039;-66
2023/01/22 12:29:36;;;;;;;6.35;3.40;;;4.30;78.10;;;;;;5087530;28;20084;-59
2023/01/22 12:32:09;;;;;;;3.90;2.40;;;4.20;77.90;;;;;;5087638;28;20031;-59
2023/01/22 12:34:59;;;;;;;12.23;3.13;;;4.20;78.00;;;;;;5092486;28;20543;-59
2023/01/22 12:37:32;;;;;;;3.50;2.60;;;4.20;78.70;;;;;;5088237;28;20085;-60
2023/01/22 12:40:25;;;;;;;6.45;2.40;;;4.20;78.80;;;;;;5094739;28;20032;-61
2023/01/22 12:43:02;;;;;;;2.67;2.08;;;4.20;78.10;;;;;;5091757;28;20032;-60
2023/01/22 12:45:54;;;;;;;2.33;2.13;;;4.30;78.20;;;;;;5088754;28;20620;-61
2023/01/22 12:48:30;;;;;;;3.88;2.78;;;4.20;78.10;;;;;;5079573;28;20131;-60
2023/01/22 12:50:57;;;;;;;8.63;3.53;;;4.20;78.10;;;;;;5089201;28;20032;-66
2023/01/22 12:53:33;;;;;;;3.28;2.35;;;4.20;78.10;;;;;;5083044;28;20067;-66
2023/01/22 12:56:11;;;;;;;3.15;2.30;;;4.20;78.30;;;;;;5088119;28;20471;-65
2023/01/22 12:58:40;;;;;;;2.58;2.15;;;4.30;78.30;;;;;;5079683;28;20033;-65
2023/01/22 13:01:08;;;;;;;7.18;2.95;;;4.30;78.10;;;;;;5066282;28;20016;-66
2023/01/22 13:03:35;;;;;;;3.00;2.13;;;4.30;78.40;;;;;;5087802;28;20399;-66
2023/01/22 13:06:19;;;;;;;3.58;2.45;;;4.30;78.10;;;;;;5086276;28;20032;-59
2023/01/22 13:08:45;;;;;;;3.97;1.98;;;4.40;78.10;;;;;;5086164;28;20355;-58
2023/01/22 13:11:25;;;;;;;3.90;2.63;;;4.40;77.90;;;;;;5096991;28;20441;-66
2023/01/22 13:13:58;;;;;;;3.00;2.55;;;4.40;77.80;;;;;;5088639;28;20089;-66
2023/01/22 13:16:34;;;;;;;4.18;2.92;;;4.40;77.90;;;;;;5064947;28;21219;-67
2023/01/22 13:19:18;;;;;;;3.95;2.72;;;4.40;78.00;;;;;;5087532;28;20068;-66